• Join FlightAware (Why Join?)
  • Login
  • US Flag 
01:27PM EDT


 

Airport Tracker/Info


-or-


 

Live Flight TrackerFlight Track Log ✈ N960DL ✈ 08-Jun-2013 ✈ KATL - KSDF

Flight Track Log - Related Links

Times and Time Zones

All times are in EDT time to prevent confusion due to time zone crossing. See the N960DL flight status page for this flight to view local times or setup timezone preferences in your user account.

Time Position Orientation Groundspeed Altitude Reporting Facility
EDT Latitude Longitude Course Direction KTS MPH feet Rate Location/Type
10:14PM 33.6500 -84.4500 323° Northwest 164 189 2,100  Level Atlanta TRACON
10:15PM 33.6667 -84.5167 287° West 240 276 3,000 2,220 Climbing Atlanta TRACON
10:16PM 33.7000 -84.5833 301° West 285 328 6,100 2,940 Climbing Atlanta TRACON
10:17PM 33.9463 -84.2796 320° Northwest  Level FlightAware Approximate
10:17PM 33.8306 -84.5814 North 304 350 10,500  Level Atlanta Center
10:18PM 34.0447 -84.3779 320° Northwest  Level FlightAware Approximate
10:18PM 33.9286 -84.5844 359° North 328 377 11,800  Level Atlanta Center
10:19PM 34.1486 -84.4607 323° Northwest  Level FlightAware Approximate
10:19PM 34.0247 -84.5853 360° North 366 421 13,500  Level Atlanta Center
10:20PM 34.1394 -84.5883 359° North 399 459 15,600 2,160 Climbing Atlanta Center
10:21PM 34.2625 -84.5942 358° North 429 494 17,900 1,980 Climbing Atlanta Center
10:22PM 34.3836 -84.6178 351° North 442 509 19,600 1,860 Climbing Atlanta Center
10:23PM 34.5192 -84.6539 348° North 453 521 21,700 5,160 Climbing Atlanta Center
10:24PM 34.6483 -84.6828 350° North 458 527 30,000 1,980 Climbing Atlanta Center
10:25PM 34.7753 -84.7164 348° North 458 527 25,700 -1,260 Descending Atlanta Center
10:26PM 34.9025 -84.7478 349° North 463 533 27,500 1,680 Climbing Atlanta Center
10:27PM 35.0297 -84.7794 348° North 469 540 29,100 1,200 Climbing Atlanta Center
10:28PM 35.1567 -84.8111 348° North 469 540 30,000 420 Climbing Atlanta Center
10:29PM 35.2839 -84.8428 349° North 469 540 30,000  Level Atlanta Center
10:30PM 35.4067 -84.8744 348° North 469 540 30,000  Level Atlanta Center
10:31PM 35.5275 -84.9064 348° North 456 525 30,000  Level Atlanta Center
10:33PM 35.8017 -84.9844 347° North 465 535 30,000  Level Indianapolis Center
10:34PM 35.9300 -85.0142 349° North 470 541 30,000  Level Indianapolis Center
10:35PM 36.0422 -85.0403 349° North 464 534 30,000  Level Indianapolis Center
10:36PM 36.1653 -85.0694 349° North 450 518 30,000 -420 Level Indianapolis Center
10:37PM 36.2892 -85.0981 349° North 451 519 29,200 -1,380 Descending Indianapolis Center
10:38PM 36.4133 -85.1281 349° North 454 522 27,300 -1,740 Descending Indianapolis Center
10:39PM 36.5386 -85.1575 349° North 458 527 25,800 -1,380 Descending Indianapolis Center
10:40PM 36.6667 -85.1522 North 464 534 24,600 -1,080 Descending Indianapolis Center
10:42PM 36.7919 -85.1286 North 456 525 23,700 -1,140 Descending Indianapolis Center
10:43PM 36.9142 -85.1042 North 448 516 22,400 -1,200 Descending Indianapolis Center
10:44PM 37.0433 -85.0769 10° North 443 510 21,400 -1,140 Descending Indianapolis Center
10:45PM 37.1633 -85.0547 North 436 502 20,200 -1,800 Descending Indianapolis Center
10:46PM 37.2806 -85.0314 North 426 490 17,800 -2,340 Descending Indianapolis Center
10:47PM 37.3931 -85.0086 North 410 472 15,600 -2,040 Descending Indianapolis Center
10:48PM 37.5019 -84.9864 North 396 456 13,700 -2,040 Descending Indianapolis Center
10:49PM 37.6039 -84.9675 North 374 430 11,600 -1,560 Descending Indianapolis Center
10:50PM 37.7036 -85.0203 337° Northwest 362 417 10,600 -840 Descending Indianapolis Center
10:51PM 37.7692 -85.1111 312° West 350 403 10,000 -300 Descending Indianapolis Center
10:52PM 37.8342 -85.1969 314° West 337 388 10,000 -300 Level Indianapolis Center
10:53PM 37.8739 -85.2839 300° West 297 342 9,500 -900 Descending Indianapolis Center
10:54PM 37.9131 -85.3733 299° West 290 334 8,300 -1,440 Descending Indianapolis Center
10:55PM 37.9514 -85.4614 299° West 286 329 6,600 -1,800 Descending Indianapolis Center
10:56PM 37.9903 -85.5458 300° West 280 322 4,700 -1,920 Descending Indianapolis Center